Time;durP1;ratioP1;P1;durP2;ratioP2;P2;SDS_P1;SDS_P2;PMS_P1;PMS_P2;Temp;Humidity;BMP_temperature;BMP_pressure;BME280_temperature;BME280_humidity;BME280_pressure;Samples;Min_cycle;Max_cycle;Signal;HPM_P1;HPM_P2
2021/11/30 00:00:55;;;;;;;13.83;7.07;;;;;;;;;;6235351;23;20167;-89
2021/11/30 00:04:05;;;;;;;13.07;6.73;;;;;;;;;;6253819;22;20190;-91
2021/11/30 00:07:11;;;;;;;14.60;7.00;;;;;;;;;;6235903;23;20179;-91
2021/11/30 00:13:41;;;;;;;15.17;6.97;;;;;;;;;;6234526;23;20553;-91
2021/11/30 00:16:47;;;;;;;13.30;7.00;;;;;;;;;;6233618;23;20255;-90
2021/11/30 00:19:55;;;;;;;15.63;7.07;;;;;;;;;;6234183;23;20239;-92
2021/11/30 00:23:02;;;;;;;16.43;7.27;;;;;;;;;;6234158;23;20151;-88
2021/11/30 00:26:08;;;;;;;14.87;7.67;;;;;;;;;;6235109;23;20166;-90
2021/11/30 00:29:19;;;;;;;11.77;6.43;;;;;;;;;;6233714;23;20174;-91
2021/11/30 00:32:24;;;;;;;16.77;7.00;;;;;;;;;;6250637;23;20217;-92
2021/11/30 03:02:17;;;;;;;14.57;7.50;;;;;;;;;;6245176;22;20211;-89
2021/11/30 03:05:26;;;;;;;15.37;7.83;;;;;;;;;;6264905;22;20153;-88
2021/11/30 03:17:21;;;;;;;12.97;6.60;;;;;;;;;;6218285;22;20191;-89
2021/11/30 03:20:26;;;;;;;12.00;5.80;;;;;;;;;;6265545;22;20178;-89
2021/11/30 03:23:32;;;;;;;12.83;6.20;;;;;;;;;;6265210;22;20154;-89
2021/11/30 03:26:39;;;;;;;10.93;4.90;;;;;;;;;;6266237;22;20174;-90
2021/11/30 03:29:45;;;;;;;11.60;5.87;;;;;;;;;;6265709;22;20247;-90
2021/11/30 03:36:15;;;;;;;9.93;4.43;;;;;;;;;;6282970;22;20174;-90
2021/11/30 03:39:22;;;;;;;11.17;5.47;;;;;;;;;;6264208;22;20215;-91
2021/11/30 03:42:27;;;;;;;13.87;5.67;;;;;;;;;;6265841;22;20166;-90
2021/11/30 03:45:33;;;;;;;11.57;5.60;;;;;;;;;;6266498;22;20170;-92
2021/11/30 03:48:40;;;;;;;11.67;5.73;;;;;;;;;;6265713;22;20171;-90
2021/11/30 03:51:46;;;;;;;9.43;5.27;;;;;;;;;;6265044;22;20213;-89
2021/11/30 03:54:52;;;;;;;12.30;5.37;;;;;;;;;;6264887;22;20189;-91
2021/11/30 03:57:57;;;;;;;9.93;4.03;;;;;;;;;;6265772;22;20189;-91
2021/11/30 04:01:03;;;;;;;14.23;5.33;;;;;;;;;;6264588;22;20169;-90
2021/11/30 04:04:19;;;;;;;11.23;5.60;;;;;;;;;;6264026;23;20206;-90
2021/11/30 04:07:25;;;;;;;15.43;5.63;;;;;;;;;;6265431;23;20162;-90
2021/11/30 04:10:34;;;;;;;10.23;5.23;;;;;;;;;;6264337;22;20194;-91
2021/11/30 04:13:40;;;;;;;12.33;5.33;;;;;;;;;;6264642;22;20174;-90
2021/11/30 04:16:45;;;;;;;11.83;4.67;;;;;;;;;;6264494;23;20157;-90
2021/11/30 04:19:52;;;;;;;10.17;4.63;;;;;;;;;;6263847;22;20241;-91
2021/11/30 04:22:57;;;;;;;10.30;4.30;;;;;;;;;;6263564;23;20190;-89
2021/11/30 04:26:03;;;;;;;15.63;4.63;;;;;;;;;;6264904;22;20174;-91
2021/11/30 04:37:58;;;;;;;10.00;5.23;;;;;;;;;;6252941;22;20211;-91
2021/11/30 04:41:04;;;;;;;11.47;5.23;;;;;;;;;;6262226;23;20170;-89
2021/11/30 04:44:10;;;;;;;9.80;4.70;;;;;;;;;;6263852;22;20203;-90
2021/11/30 04:47:16;;;;;;;7.20;4.00;;;;;;;;;;6245525;23;20170;-91
2021/11/30 04:50:23;;;;;;;8.27;4.00;;;;;;;;;;6263654;22;20270;-89
2021/11/30 04:53:31;;;;;;;9.43;4.50;;;;;;;;;;6263827;22;20174;-89
2021/11/30 04:56:37;;;;;;;8.90;4.40;;;;;;;;;;6262800;23;20170;-89
2021/11/30 04:59:42;;;;;;;7.27;4.23;;;;;;;;;;6263594;22;20215;-89
2021/11/30 05:02:56;;;;;;;6.00;3.47;;;;;;;;;;6263871;22;20174;-90
2021/11/30 05:06:02;;;;;;;7.37;4.53;;;;;;;;;;6266107;22;20214;-90
2021/11/30 05:09:10;;;;;;;7.20;4.17;;;;;;;;;;6264519;22;20184;-90
2021/11/30 05:12:15;;;;;;;7.47;4.30;;;;;;;;;;6246191;23;20158;-91
2021/11/30 05:15:21;;;;;;;9.13;4.20;;;;;;;;;;6263793;22;20170;-91
2021/11/30 05:18:27;;;;;;;8.73;4.57;;;;;;;;;;6247358;22;20167;-89
2021/11/30 05:21:32;;;;;;;7.07;4.13;;;;;;;;;;6263940;22;20244;-91
2021/11/30 05:24:39;;;;;;;6.40;3.57;;;;;;;;;;6264993;22;20170;-90
2021/11/30 05:27:45;;;;;;;5.37;2.83;;;;;;;;;;6263820;22;20870;-92
2021/11/30 05:30:51;;;;;;;6.60;3.67;;;;;;;;;;6266217;22;20198;-92
2021/11/30 05:33:59;;;;;;;4.30;2.27;;;;;;;;;;6265233;22;20232;-90
2021/11/30 05:37:05;;;;;;;5.67;3.30;;;;;;;;;;6265245;22;20181;-91
2021/11/30 05:40:17;;;;;;;5.63;3.30;;;;;;;;;;6264182;22;20178;-90
2021/11/30 05:43:23;;;;;;;6.27;3.20;;;;;;;;;;6248398;23;20532;-91
2021/11/30 05:46:31;;;;;;;5.90;3.30;;;;;;;;;;6265862;23;20170;-90
2021/11/30 05:49:39;;;;;;;6.70;3.53;;;;;;;;;;6267838;23;20181;-88
2021/11/30 05:56:34;;;;;;;6.80;3.10;;;;;;;;;;6268271;22;20163;-89
2021/11/30 05:59:42;;;;;;;5.40;3.40;;;;;;;;;;6249745;23;20159;-88
2021/11/30 06:06:11;;;;;;;5.37;3.17;;;;;;;;;;6250729;23;20167;-91
